Anadarko, Texas
Current Conditions -  °F | °C
As of 7:55 AM on Saturday 01 Nov 2014 (Local Time) from KRFI Reporting Station
Clear Clear  
Wind Chill: 39°   Ceiling: Unl
Heat Index: 39°   Visibility: 10mi
Dew Point: 28°   Wind: 3mph
Humidity: 64%   Direction: 50°NE
Pressure: 30.45"   Gusts: NA
Location:  31.9447°N, 94.855°W
Report Text: KRFI 011255Z AUTO 05003KT 10SM CLR 04/M02 A3045 RMK AO2 T00401023
Loading
Personal Weather Stations






























Interactive Weather Map
Tropical Storm Tracking
New forecast layout! Learn more

10-Day Weather Forecast

Advertisements
Track Severe Weather on mobile